.
WxDataArchive / Data Records for 2012-12-16
2012-12-15 December 2012 2012-12-17

Data Records for Sunday, 16 December 2012

Time	Temp	Chill	HIndex	Humid	Dewpt	 Wind 	HiWind	WindDir	Rain 	Barom 
-----	----	-----	------	-----	-----	------	------	-------	-----	----- 
00:00	50.8	50.8	50.8	90	48.0	1	4	248	0.00	29.665 
00:05	51.0	51.0	51.0	89	47.9	1	4	248	0.00	29.665 
00:10	51.0	51.0	51.0	89	47.9	1	6	248	0.00	29.665 
00:15	51.1	51.1	51.1	89	48.0	1	4	248	0.00	29.662 
00:20	51.1	51.1	51.1	89	48.0	0	3	248	0.00	29.662 
00:25	51.1	51.1	51.1	89	48.0	1	5	248	0.00	29.662 
00:30	51.3	51.3	51.3	89	48.2	0	2	248	0.00	29.659 
00:35	51.3	51.3	51.3	89	48.2	0	4	270	0.00	29.659 
00:40	51.3	51.3	51.3	89	48.2	0	1	270	0.00	29.659 
00:45	51.3	51.3	51.3	89	48.2	1	5	270	0.00	29.659 
00:50	51.3	51.3	51.3	89	48.2	1	3	248	0.00	29.659 
00:55	51.3	51.3	51.3	89	48.2	0	3	225	0.00	29.659 
01:00	51.3	51.3	51.3	89	48.2	1	3	225	0.00	29.655 
01:05	51.4	51.4	51.4	89	48.3	0	3	225	0.00	29.655 
01:10	51.4	51.4	51.4	89	48.3	1	5	225	0.00	29.655 
01:15	51.6	51.6	51.6	89	48.5	1	5	270	0.00	29.647 
01:20	51.7	51.7	51.7	89	48.6	1	4	248	0.00	29.647 
01:25	51.7	51.7	51.7	89	48.6	1	3	248	0.00	29.647 
01:30	51.9	51.9	51.9	89	48.8	1	5	248	0.00	29.644 
01:35	52.0	52.0	52.0	89	48.9	2	6	248	0.00	29.644 
01:40	52.2	52.2	52.2	89	49.1	1	5	248	0.00	29.644 
01:45	52.2	52.2	52.2	89	49.1	1	5	248	0.00	29.644 
01:50	52.3	52.3	52.3	88	48.9	1	5	225	0.00	29.644 
01:55	52.3	52.3	52.3	88	48.9	1	5	248	0.00	29.644 
02:00	52.5	52.5	52.5	88	49.0	1	3	270	0.00	29.635 
02:05	52.5	52.5	52.5	88	49.0	1	6	248	0.00	29.635 
02:10	52.6	52.6	52.6	88	49.1	1	4	248	0.00	29.635 
02:15	52.6	52.6	52.6	88	49.1	2	7	248	0.00	29.637 
02:20	52.6	52.6	52.6	88	49.1	1	6	248	0.00	29.637 
02:25	52.8	52.8	52.8	88	49.3	1	4	248	0.00	29.637 
02:30	52.8	52.8	52.8	88	49.3	1	4	248	0.00	29.642 
02:35	52.8	52.8	52.8	88	49.3	1	4	248	0.00	29.642 
02:40	52.9	52.9	52.9	88	49.4	2	6	248	0.00	29.642 
02:45	52.9	52.9	52.9	88	49.4	2	6	225	0.00	29.644 
02:50	53.1	53.1	53.1	88	49.6	1	4	248	0.00	29.644 
02:55	53.1	53.1	53.1	88	49.6	1	5	248	0.00	29.644 
03:00	53.1	53.1	53.1	88	49.6	0	3	202	0.00	29.646 
03:05	53.1	53.1	53.1	88	49.6	2	6	248	0.00	29.646 
03:10	53.1	53.1	53.1	88	49.6	1	5	248	0.00	29.646 
03:15	53.1	53.1	53.1	88	49.6	1	5	248	0.00	29.648 
03:20	53.1	53.1	53.1	88	49.6	1	6	248	0.00	29.648 
03:25	53.1	53.1	53.1	88	49.6	1	3	248	0.00	29.648 
03:30	53.1	53.1	53.1	88	49.6	1	3	248	0.00	29.645 
03:35	53.1	53.1	53.1	88	49.6	0	3	248	0.00	29.645 
03:40	53.1	53.1	53.1	88	49.6	0	1	248	0.00	29.645 
03:45	52.9	52.9	52.9	88	49.4	0	3	248	0.00	29.645 
03:50	52.9	52.9	52.9	88	49.4	0	4	248	0.00	29.645 
03:55	52.9	52.9	52.9	88	49.4	1	4	248	0.00	29.645 
04:00	52.9	52.9	52.9	88	49.4	0	3	248	0.00	29.645 
04:05	52.8	52.8	52.8	88	49.3	0	4	248	0.00	29.645 
04:10	52.8	52.8	52.8	88	49.3	0	1	248	0.00	29.645 
04:15	52.8	52.8	52.8	89	49.6	0	3	248	0.00	29.642 
04:20	52.8	52.8	52.8	89	49.6	0	2	248	0.00	29.642 
04:25	52.8	52.8	52.8	89	49.6	1	3	248	0.00	29.642 
04:30	52.8	52.8	52.8	89	49.6	1	5	248	0.00	29.642 
04:35	52.8	52.8	52.8	89	49.6	0	2	248	0.00	29.642 
04:40	52.8	52.8	52.8	89	49.6	1	5	248	0.00	29.642 
04:45	52.8	52.8	52.8	89	49.6	1	4	270	0.00	29.639 
04:50	52.8	52.8	52.8	89	49.6	1	4	270	0.00	29.639 
04:55	52.8	52.8	52.8	89	49.6	1	4	248	0.00	29.639 
05:00	52.8	52.8	52.8	89	49.6	1	4	248	0.00	29.632 
05:05	52.8	52.8	52.8	89	49.6	1	4	248	0.00	29.632 
05:10	52.8	52.8	52.8	89	49.6	0	5	225	0.00	29.632 
05:15	52.8	52.8	52.8	89	49.6	1	5	225	0.00	29.630 
05:20	52.9	52.9	52.9	89	49.7	1	4	225	0.00	29.630 
05:25	52.9	52.9	52.9	89	49.7	0	3	248	0.00	29.630 
05:30	52.9	52.9	52.9	89	49.7	1	3	248	0.00	29.636 
05:35	52.9	52.9	52.9	89	49.7	1	4	248	0.00	29.636 
05:40	52.9	52.9	52.9	89	49.7	0	2	248	0.00	29.636 
05:45	52.8	52.8	52.8	89	49.6	0	4	248	0.00	29.630 
05:50	52.8	52.8	52.8	89	49.6	0	3	248	0.00	29.630 
05:55	52.8	52.8	52.8	89	49.6	0	5	248	0.00	29.630 
06:00	52.8	52.8	52.8	89	49.6	1	3	248	0.00	29.634 
06:05	52.8	52.8	52.8	89	49.6	0	2	248	0.00	29.634 
06:10	52.6	52.6	52.6	89	49.4	1	3	248	0.00	29.634 
06:15	52.6	52.6	52.6	89	49.4	1	3	248	0.00	29.629 
06:20	52.6	52.6	52.6	89	49.4	0	2	270	0.00	29.629 
06:25	52.6	52.6	52.6	89	49.4	1	3	270	0.00	29.629 
06:30	52.6	52.6	52.6	89	49.4	0	3	270	0.00	29.632 
06:35	52.5	52.5	52.5	89	49.4	0	1	270	0.00	29.632 
06:40	52.5	52.5	52.5	89	49.4	0	2	270	0.00	29.632 
06:45	52.5	52.5	52.5	89	49.4	1	4	248	0.00	29.635 
06:50	52.5	52.5	52.5	90	49.7	0	1	248	0.00	29.635 
06:55	52.5	52.5	52.5	89	49.4	0	3	248	0.00	29.635 
07:00	52.5	52.5	52.5	90	49.7	0	2	248	0.00	29.628 
07:05	52.3	52.3	52.3	90	49.5	0	2	248	0.00	29.628 
07:10	52.2	52.2	52.2	90	49.4	0	4	270	0.00	29.628 
07:15	52.2	52.2	52.2	90	49.4	0	4	270	0.00	29.631 
07:20	52.0	52.0	52.0	90	49.2	0	3	248	0.00	29.631 
07:25	52.0	52.0	52.0	90	49.2	0	2	248	0.00	29.631 
07:30	51.9	51.9	51.9	90	49.1	0	3	248	0.00	29.636 
07:35	51.9	51.9	51.9	90	49.1	0	2	202	0.00	29.636 
07:40	51.9	51.9	51.9	90	49.1	0	2	202	0.00	29.636 
07:45	51.9	51.9	51.9	90	49.1	0	2	248	0.00	29.643 
07:50	51.9	51.9	51.9	90	49.1	1	3	248	0.00	29.643 
07:55	52.0	52.0	52.0	90	49.2	0	4	248	0.00	29.643 
08:00	51.9	51.9	51.9	90	49.1	0	3	248	0.00	29.644 
08:05	51.9	51.9	51.9	90	49.1	1	4	248	0.00	29.644 
08:10	52.0	52.0	52.0	90	49.2	1	6	248	0.00	29.644 
08:15	52.0	52.0	52.0	90	49.2	1	4	248	0.00	29.646 
08:20	52.0	52.0	52.0	90	49.2	1	3	248	0.00	29.646 
08:25	51.9	51.9	51.9	90	49.1	1	5	248	0.00	29.646 
08:30	51.9	51.9	51.9	89	48.8	1	5	270	0.00	29.648 
08:35	51.9	51.9	51.9	89	48.8	0	3	270	0.00	29.648 
08:40	51.9	51.9	51.9	89	48.8	1	4	270	0.00	29.648 
08:45	51.9	51.9	51.9	89	48.8	2	7	248	0.00	29.647 
08:50	51.9	51.9	51.9	88	48.5	1	4	248	0.00	29.647 
08:55	51.9	51.9	51.9	88	48.5	1	3	248	0.00	29.647 
09:00	51.9	51.9	51.9	88	48.5	1	6	248	0.00	29.647 
09:05	51.7	51.7	51.7	88	48.3	2	5	248	0.00	29.647 
09:10	51.7	51.7	51.7	87	48.0	1	5	248	0.00	29.647 
09:15	51.7	51.7	51.7	86	47.6	1	7	248	0.00	29.647 
09:20	51.9	51.9	51.9	86	47.8	1	5	248	0.00	29.647 
09:25	51.9	51.9	51.9	86	47.8	1	6	248	0.00	29.647 
09:30	51.7	51.7	51.7	85	47.3	2	5	248	0.00	29.654 
09:35	51.7	51.7	51.7	85	47.3	2	6	248	0.00	29.654 
09:40	51.9	51.9	51.9	84	47.2	1	5	248	0.00	29.654 
09:45	51.7	51.7	51.7	84	47.0	2	4	248	0.00	29.652 
09:50	51.9	51.9	51.9	84	47.2	1	4	248	0.00	29.652 
09:55	51.9	51.9	51.9	84	47.2	2	5	248	0.00	29.652 
10:00	51.9	51.9	51.9	84	47.2	1	4	248	0.00	29.657 
10:05	51.9	51.9	51.9	84	47.2	1	2	248	0.00	29.657 
10:10	51.9	51.9	51.9	84	47.2	2	6	248	0.00	29.657 
10:15	51.9	51.9	51.9	84	47.2	1	4	248	0.00	29.658 
10:20	51.9	51.9	51.9	84	47.2	1	4	248	0.00	29.658 
10:25	51.9	51.9	51.9	84	47.2	1	4	248	0.00	29.658 
10:30	51.9	51.9	51.9	84	47.2	2	5	270	0.00	29.663 
10:35	51.9	51.9	51.9	84	47.2	1	4	248	0.00	29.663 
10:40	51.9	51.9	51.9	84	47.2	1	3	248	0.00	29.663 
10:45	51.9	51.9	51.9	84	47.2	2	6	248	0.00	29.661 
10:50	52.0	52.0	52.0	84	47.3	1	5	248	0.00	29.661 
10:55	52.0	52.0	52.0	83	47.0	1	5	225	0.00	29.661 
11:00	52.0	52.0	52.0	83	47.0	1	4	248	0.00	29.667 
11:05	52.2	52.2	52.2	83	47.2	1	4	248	0.00	29.667 
11:10	52.0	52.0	52.0	83	47.0	2	4	248	0.00	29.667 
11:15	52.0	52.0	52.0	82	46.7	2	5	248	0.00	29.668 
11:20	52.0	52.0	52.0	83	47.0	2	5	248	0.00	29.668 
11:25	52.0	52.0	52.0	82	46.7	1	5	248	0.00	29.668 
11:30	52.2	52.2	52.2	82	46.9	1	4	248	0.00	29.659 
11:35	52.2	52.2	52.2	82	46.9	1	6	248	0.00	29.659 
11:40	52.2	52.2	52.2	81	46.5	3	6	248	0.00	29.659 
11:45	52.2	52.2	52.2	81	46.5	3	9	248	0.00	29.654 
11:50	52.2	52.2	52.2	81	46.5	2	5	248	0.00	29.654 
11:55	52.2	52.2	52.2	81	46.5	2	6	248	0.00	29.654 
12:00	52.2	52.2	52.2	81	46.5	2	7	248	0.00	29.645 
12:05	52.3	52.3	52.3	81	46.6	2	5	248	0.00	29.645 
12:10	52.3	52.3	52.3	81	46.6	2	5	248	0.00	29.645 
12:15	52.5	52.5	52.5	81	46.8	1	4	248	0.00	29.638 
12:20	52.6	52.6	52.6	81	46.9	1	7	248	0.00	29.638 
12:25	52.6	52.6	52.6	80	46.6	2	6	248	0.00	29.638 
12:30	52.6	52.6	52.6	80	46.6	2	6	248	0.00	29.630 
12:35	52.8	52.8	52.8	80	46.8	1	7	248	0.00	29.630 
12:40	53.1	53.1	53.1	80	47.1	1	7	225	0.00	29.630 
12:45	53.1	53.1	53.1	79	46.8	2	7	270	0.00	29.630 
12:50	53.2	53.2	53.2	79	46.9	2	7	248	0.00	29.630 
12:55	53.3	53.3	53.3	79	47.0	1	3	248	0.00	29.630 
13:00	53.3	53.3	53.3	77	46.3	2	5	248	0.00	29.628 
13:05	53.2	53.2	53.2	77	46.2	2	5	248	0.00	29.628 
13:10	53.2	53.2	53.2	76	45.8	2	7	248	0.00	29.628 
13:15	53.2	53.2	53.2	76	45.8	2	7	248	0.00	29.620 
13:20	53.1	53.1	53.1	76	45.7	2	6	248	0.00	29.620 
13:25	53.1	53.1	53.1	76	45.7	2	7	248	0.00	29.620 
13:30	53.2	53.2	53.2	76	45.8	1	5	248	0.00	29.613 
13:35	53.2	53.2	53.2	76	45.8	1	6	248	0.00	29.613 
13:40	53.2	53.2	53.2	75	45.5	3	6	248	0.00	29.613 
13:45	53.1	53.1	53.1	74	45.0	3	9	248	0.00	29.611 
13:50	52.9	52.9	52.9	74	44.8	2	7	248	0.00	29.611 
13:55	52.9	52.9	52.9	73	44.5	2	8	248	0.00	29.611 
14:00	52.9	52.9	52.9	73	44.5	3	10	248	0.00	29.606 
14:05	52.8	52.8	52.8	73	44.4	3	6	248	0.00	29.606 
14:10	52.6	52.6	52.6	73	44.2	3	12	248	0.00	29.606 
14:15	52.5	52.5	52.5	73	44.1	4	11	248	0.00	29.607 
14:20	52.5	52.5	52.5	73	44.1	2	9	248	0.00	29.607 
14:25	52.5	52.5	52.5	73	44.1	3	7	248	0.00	29.607 
14:30	52.3	52.3	52.3	73	43.9	3	11	248	0.00	29.605 
14:35	52.2	52.2	52.2	74	44.2	1	4	248	0.00	29.605 
14:40	51.9	51.9	51.9	76	44.6	1	4	248	0.00	29.605 
14:45	51.6	51.6	51.6	77	44.6	1	4	248	0.00	29.590 
14:50	51.4	51.4	51.4	77	44.4	2	5	248	0.00	29.590 
14:55	51.1	51.1	51.1	76	43.8	2	5	248	0.00	29.590 
15:00	51.0	51.0	51.0	76	43.7	2	5	270	0.00	29.590 
15:05	51.0	51.0	51.0	76	43.7	2	6	248	0.00	29.590 
15:10	51.0	51.0	51.0	76	43.7	2	7	248	0.00	29.590 
15:15	51.0	51.0	51.0	75	43.4	3	9	248	0.00	29.595 
15:20	51.0	51.0	51.0	76	43.7	1	4	248	0.00	29.595 
15:25	51.0	51.0	51.0	75	43.4	1	6	248	0.00	29.595 
15:30	51.0	51.0	51.0	74	43.0	2	9	248	0.00	29.607 
15:35	51.0	51.0	51.0	73	42.7	2	5	248	0.00	29.607 
15:40	51.0	51.0	51.0	73	42.7	2	4	248	0.00	29.607 
15:45	51.0	51.0	51.0	72	42.3	2	9	248	0.00	29.605 
15:50	51.0	51.0	51.0	72	42.3	1	4	248	0.00	29.605 
15:55	51.0	51.0	51.0	72	42.3	2	5	248	0.00	29.605 
16:00	50.8	50.8	50.8	72	42.1	1	3	248	0.00	29.614 
16:05	50.8	50.8	50.8	73	42.5	0	3	248	0.00	29.614 
16:10	50.8	50.8	50.8	73	42.5	1	5	248	0.00	29.614 
16:15	50.7	50.7	50.7	73	42.4	1	6	248	0.00	29.624 
16:20	50.5	50.5	50.5	73	42.2	1	3	248	0.00	29.624 
16:25	50.5	50.5	50.5	73	42.2	0	3	315	0.00	29.624 
16:30	50.5	50.5	50.5	73	42.2	1	5	270	0.00	29.631 
16:35	50.5	50.5	50.5	73	42.2	1	4	225	0.00	29.631 
16:40	50.4	50.4	50.4	73	42.1	1	3	225	0.00	29.631 
16:45	50.4	50.4	50.4	74	42.4	1	4	225	0.00	29.638 
16:50	50.4	50.4	50.4	73	42.1	2	5	225	0.00	29.638 
16:55	50.2	50.2	50.2	73	41.9	1	4	248	0.00	29.638 
17:00	50.2	50.2	50.2	74	42.2	1	4	248	0.00	29.628 
17:05	50.1	50.1	50.1	74	42.1	1	4	248	0.00	29.628 
17:10	50.1	50.1	50.1	73	41.8	2	6	248	0.00	29.628 
17:15	50.1	50.1	50.1	73	41.8	1	3	248	0.00	29.632 
17:20	49.9	49.9	49.9	73	41.6	2	5	248	0.00	29.632 
17:25	49.9	49.9	49.9	73	41.6	1	5	270	0.00	29.632 
17:30	49.8	49.8	49.8	73	41.5	1	3	270	0.00	29.631 
17:35	49.8	49.8	49.8	73	41.5	2	5	270	0.00	29.631 
17:40	49.6	49.6	49.6	73	41.3	2	5	270	0.00	29.631 
17:45	49.6	49.6	49.6	73	41.3	2	6	248	0.00	29.626 
17:50	49.6	49.6	49.6	74	41.7	1	4	270	0.00	29.626 
17:55	49.5	49.5	49.5	74	41.6	1	3	270	0.00	29.626 
18:00	49.5	49.5	49.5	74	41.6	1	5	248	0.00	29.628 
18:05	49.4	49.4	49.4	74	41.5	1	3	248	0.00	29.628 
18:10	49.4	49.4	49.4	74	41.5	2	5	248	0.00	29.628 
18:15	49.4	49.4	49.4	75	41.8	2	6	248	0.00	29.632 
18:20	49.2	49.2	49.2	77	42.3	1	3	248	0.00	29.632 
18:25	48.9	48.9	48.9	78	42.3	1	3	270	0.00	29.632 
18:30	48.6	48.6	48.6	79	42.4	0	3	270	0.00	29.642 
18:35	48.3	48.3	48.3	80	42.4	2	7	270	0.00	29.642 
18:40	48.0	48.0	48.0	81	42.5	1	3	270	0.00	29.642 
18:45	47.7	47.7	47.7	82	42.5	1	4	248	0.00	29.647 
18:50	47.4	47.4	47.4	83	42.5	1	5	248	0.00	29.647 
18:55	47.3	47.3	47.3	83	42.4	2	5	248	0.00	29.647 
19:00	47.0	47.0	47.0	84	42.4	2	6	248	0.00	29.660 
19:05	46.8	46.8	46.8	84	42.2	2	5	248	0.00	29.660 
19:10	46.5	46.5	46.5	84	41.9	2	5	248	0.00	29.660 
19:15	46.2	46.2	46.2	84	41.6	2	5	248	0.00	29.659 
19:20	46.1	46.1	46.1	84	41.5	1	4	248	0.00	29.659 
19:25	46.1	46.1	46.1	85	41.8	1	5	248	0.00	29.659 
19:30	46.0	46.0	46.0	85	41.7	1	5	270	0.00	29.661 
19:35	46.0	46.0	46.0	85	41.7	0	2	248	0.00	29.661 
19:40	45.8	45.8	45.8	85	41.6	0	2	248	0.00	29.661 
19:45	45.8	45.8	45.8	86	41.9	1	2	248	0.00	29.666 
19:50	45.7	45.7	45.7	86	41.8	1	4	248	0.00	29.666 
19:55	45.4	45.4	45.4	86	41.5	1	2	248	0.00	29.666 
20:00	45.2	45.2	45.2	86	41.3	1	3	248	0.00	29.664 
20:05	45.1	45.1	45.1	86	41.2	1	3	270	0.00	29.664 
20:10	44.9	44.9	44.9	86	41.0	0	2	270	0.00	29.664 
20:15	44.9	44.9	44.9	86	41.0	0	2	270	0.00	29.671 
20:20	44.8	44.8	44.8	87	41.2	1	3	270	0.00	29.671 
20:25	44.6	44.6	44.6	87	41.0	1	3	270	0.00	29.671 
20:30	44.5	44.5	44.5	87	40.9	1	2	338	0.00	29.678 
20:35	44.3	44.3	44.3	87	40.7	1	3	248	0.00	29.678 
20:40	43.9	43.9	43.9	87	40.3	2	4	248	0.00	29.678 
20:45	43.8	43.8	43.8	86	39.9	1	3	270	0.00	29.682 
20:50	43.5	43.5	43.5	87	39.9	1	5	270	0.00	29.682 
20:55	43.5	43.5	43.5	86	39.6	2	4	248	0.00	29.682 
21:00	43.3	43.3	43.3	86	39.4	2	3	248	0.00	29.684 
21:05	43.2	43.2	43.2	87	39.6	1	3	248	0.00	29.684 
21:10	43.2	43.2	43.2	87	39.6	1	2	248	0.00	29.684 
21:15	43.1	43.1	43.1	87	39.5	1	4	248	0.00	29.682 
21:20	42.9	42.9	42.9	87	39.3	1	3	270	0.00	29.682 
21:25	42.8	42.8	42.8	87	39.2	1	4	270	0.00	29.682 
21:30	42.6	42.6	42.6	87	39.0	2	5	248	0.00	29.696 
21:35	42.5	42.5	42.5	87	38.9	1	3	248	0.00	29.696 
21:40	42.3	42.3	42.3	87	38.7	1	4	270	0.00	29.696 
21:45	42.2	42.2	42.2	87	38.6	1	4	270	0.00	29.707 
21:50	42.1	42.1	42.1	87	38.5	2	4	292	0.00	29.707 
21:55	41.9	41.9	41.9	87	38.3	2	4	248	0.00	29.707 
22:00	41.8	41.8	41.8	87	38.2	2	5	248	0.00	29.712 
22:05	41.6	41.6	41.6	87	38.0	2	4	248	0.00	29.712 
22:10	41.6	41.6	41.6	87	38.0	1	4	270	0.00	29.712 
22:15	41.5	41.5	41.5	87	37.9	2	4	248	0.00	29.715 
22:20	41.5	41.5	41.5	87	37.9	1	4	248	0.00	29.715 
22:25	41.3	41.3	41.3	87	37.7	2	5	270	0.00	29.715 
22:30	41.3	41.3	41.3	87	37.7	1	3	270	0.00	29.720 
22:35	41.2	41.2	41.2	86	37.3	1	4	270	0.00	29.720 
22:40	41.2	41.2	41.2	86	37.3	1	4	248	0.00	29.720 
22:45	41.2	41.2	41.2	86	37.3	1	3	248	0.00	29.717 
22:50	41.1	41.1	41.1	85	36.9	1	4	248	0.00	29.717 
22:55	41.1	41.1	41.1	85	36.9	1	4	248	0.00	29.717 
23:00	41.1	41.1	41.1	85	36.9	1	3	248	0.00	29.716 
23:05	41.1	41.1	41.1	84	36.6	1	2	248	0.00	29.716 
23:10	41.1	41.1	41.1	84	36.6	0	3	248	0.00	29.716 
23:15	41.1	41.1	41.1	84	36.6	0	3	248	0.00	29.714 
23:20	41.1	41.1	41.1	83	36.3	1	3	248	0.00	29.714 
23:25	40.9	40.9	40.9	83	36.1	1	4	248	0.00	29.714 
23:30	40.9	40.9	40.9	82	35.8	1	3	248	0.00	29.714 
23:35	40.9	40.9	40.9	82	35.8	1	3	248	0.00	29.714 
23:40	40.9	40.9	40.9	82	35.8	1	3	248	0.00	29.714 
23:45	40.9	40.9	40.9	82	35.8	0	3	248	0.00	29.713 
23:50	40.9	40.9	40.9	82	35.8	0	2	248	0.00	29.713 
23:55	40.8	40.8	40.8	81	35.4	0	2	248	0.00	29.713 

CoCoRaHS
IN-AL-39
A2 Web Hosting
Creative Commons License
GoDaddy
search engine by freefind advanced

loaded 2018-11-17 12:47:19 • last modified 2010-11-18 10:43:29
Privacy PolicyDisclaimer
• wx.awcolley.com is powered by PmWiki v.2002016 •
• all content (unless otherwise noted) © 2018 A W Colley